createdAt,value
2023-03-20T00:04:45.774Z,8.00
2023-03-20T00:07:12.686Z,10.90
2023-03-20T00:09:39.960Z,8.95
2023-03-20T00:12:15.560Z,8.90
2023-03-20T00:14:42.608Z,8.50
2023-03-20T00:17:18.308Z,9.10
2023-03-20T00:19:46.138Z,11.07
2023-03-20T00:22:12.864Z,10.50
2023-03-20T00:24:39.956Z,10.48
2023-03-20T00:27:13.609Z,10.70
2023-03-20T00:29:41.125Z,9.98
2023-03-20T00:32:13.166Z,11.52
2023-03-20T00:34:40.066Z,10.82
2023-03-20T00:37:07.265Z,11.10
2023-03-20T00:39:35.392Z,10.93
2023-03-20T00:42:07.944Z,10.57
2023-03-20T00:44:56.044Z,11.30
2023-03-20T00:47:24.503Z,13.00
2023-03-20T00:49:54.208Z,11.13
2023-03-20T00:52:22.860Z,10.82
2023-03-20T00:54:50.003Z,10.52
2023-03-20T00:57:27.779Z,10.88
2023-03-20T01:00:05.230Z,10.00
2023-03-20T01:02:32.745Z,9.23
2023-03-20T01:05:00.015Z,10.07
2023-03-20T01:07:27.802Z,10.13
2023-03-20T01:09:54.829Z,9.95
2023-03-20T01:12:24.088Z,11.00
2023-03-20T01:14:56.848Z,10.10
2023-03-20T01:17:25.592Z,9.30
2023-03-20T01:19:52.616Z,9.90
2023-03-20T01:22:19.720Z,8.32
2023-03-20T01:24:47.891Z,11.05
2023-03-20T01:27:19.971Z,8.93
2023-03-20T01:29:46.974Z,9.38
2023-03-20T01:32:16.667Z,8.63
2023-03-20T01:34:44.589Z,8.30
2023-03-20T01:37:25.393Z,9.95
2023-03-20T01:39:52.397Z,8.98
2023-03-20T01:42:20.579Z,10.95
2023-03-20T01:44:47.602Z,8.85
2023-03-20T01:47:23.585Z,8.88
2023-03-20T01:50:18.535Z,10.02
2023-03-20T01:52:49.095Z,10.77
2023-03-20T01:55:16.878Z,8.88
2023-03-20T01:57:44.222Z,9.77
2023-03-20T02:00:14.555Z,8.85
2023-03-20T02:02:43.698Z,9.88
2023-03-20T02:05:13.525Z,11.13
2023-03-20T02:07:41.002Z,10.63
2023-03-20T02:10:16.885Z,9.77
2023-03-20T02:12:45.287Z,9.15
2023-03-20T02:15:14.269Z,10.90
2023-03-20T02:17:42.674Z,10.40
2023-03-20T02:20:15.622Z,10.73
2023-03-20T02:23:03.809Z,11.57
2023-03-20T02:25:54.438Z,11.82
2023-03-20T02:28:40.527Z,9.95
2023-03-20T02:31:31.565Z,9.93
2023-03-20T02:34:17.415Z,10.40
2023-03-20T02:37:15.003Z,9.85
2023-03-20T02:39:58.114Z,10.63
2023-03-20T02:42:44.740Z,10.70
2023-03-20T02:45:28.214Z,10.25
2023-03-20T02:48:18.634Z,10.25
2023-03-20T02:50:52.291Z,9.55
2023-03-20T02:53:32.461Z,10.35
2023-03-20T02:56:21.022Z,9.40
2023-03-20T02:59:20.144Z,10.13
2023-03-20T03:01:58.205Z,8.55
2023-03-20T03:04:32.517Z,10.52
2023-03-20T03:07:03.197Z,9.68
2023-03-20T03:09:35.469Z,9.48
2023-03-20T03:12:15.661Z,10.68
2023-03-20T03:15:15.535Z,10.23
2023-03-20T03:20:24.702Z,8.25
2023-03-20T03:22:51.717Z,8.77
2023-03-20T03:25:25.160Z,9.15
2023-03-20T03:28:09.915Z,9.52
2023-03-20T03:30:39.787Z,8.98
2023-03-20T03:35:36.714Z,9.90
2023-03-20T03:38:24.911Z,6.63
2023-03-20T03:41:07.501Z,7.90
2023-03-20T03:43:46.599Z,8.95
2023-03-20T03:46:21.482Z,7.88
2023-03-20T03:48:55.694Z,8.13
2023-03-20T03:51:29.956Z,8.48
2023-03-20T03:54:11.864Z,9.73
2023-03-20T03:56:42.827Z,8.55
2023-03-20T03:59:18.021Z,6.90
2023-03-20T04:01:45.891Z,10.30
2023-03-20T04:04:15.813Z,7.40
2023-03-20T04:06:44.102Z,8.57
2023-03-20T04:09:13.166Z,7.80
2023-03-20T04:11:40.331Z,8.00
2023-03-20T04:14:07.232Z,11.88
2023-03-20T04:16:34.299Z,7.60
2023-03-20T04:19:01.335Z,8.07
2023-03-20T04:21:28.394Z,8.88
2023-03-20T04:23:55.539Z,7.25
2023-03-20T04:26:24.286Z,8.65
2023-03-20T04:28:52.349Z,7.82
2023-03-20T04:31:19.562Z,7.18
2023-03-20T04:33:46.867Z,8.20
2023-03-20T04:36:14.120Z,7.43
2023-03-20T04:38:41.387Z,6.32
2023-03-20T04:41:08.836Z,7.32
2023-03-20T04:43:35.952Z,7.82
2023-03-20T04:46:03.867Z,7.47
2023-03-20T04:48:30.828Z,8.05
2023-03-20T04:50:57.956Z,7.93
2023-03-20T04:53:27.065Z,8.02
2023-03-20T04:55:54.044Z,8.23
2023-03-20T04:58:21.117Z,8.05
2023-03-20T05:00:47.961Z,10.80
2023-03-20T05:03:15.952Z,7.00
2023-03-20T05:05:43.667Z,6.25
2023-03-20T05:08:10.394Z,6.40
2023-03-20T05:10:38.325Z,6.72
2023-03-20T05:13:05.439Z,7.18
2023-03-20T05:15:33.286Z,6.28
2023-03-20T05:18:00.291Z,6.80
2023-03-20T05:20:27.386Z,7.13
2023-03-20T05:22:54.348Z,7.00
2023-03-20T05:25:21.560Z,5.57
2023-03-20T05:27:48.520Z,7.18
2023-03-20T05:30:15.940Z,6.55
2023-03-20T05:32:43.832Z,5.85
2023-03-20T05:35:12.643Z,6.75
2023-03-20T05:37:40.955Z,5.93
2023-03-20T05:40:11.256Z,6.05
2023-03-20T05:42:38.385Z,7.22
2023-03-20T05:45:07.150Z,6.13
2023-03-20T05:47:36.150Z,6.53
2023-03-20T05:50:03.898Z,6.87
2023-03-20T05:52:31.152Z,5.30
2023-03-20T05:54:58.306Z,6.60
2023-03-20T05:57:25.302Z,5.30
2023-03-20T05:59:52.500Z,6.93
2023-03-20T06:02:19.433Z,5.97
2023-03-20T06:04:46.478Z,5.55
2023-03-20T06:07:13.741Z,5.70
2023-03-20T06:09:40.932Z,5.63
2023-03-20T06:12:08.084Z,5.13
2023-03-20T06:14:35.973Z,4.72
2023-03-20T06:17:02.989Z,6.80
2023-03-20T06:19:30.013Z,4.32
2023-03-20T06:21:57.051Z,4.80
2023-03-20T06:24:25.325Z,4.38
2023-03-20T06:26:52.502Z,6.15
2023-03-20T06:29:20.630Z,4.43
2023-03-20T06:31:49.836Z,5.28
2023-03-20T06:34:16.907Z,4.97
2023-03-20T06:36:45.432Z,3.80
2023-03-20T06:39:13.381Z,3.65
2023-03-20T06:41:40.456Z,3.33
2023-03-20T06:44:07.440Z,4.85
2023-03-20T06:46:34.602Z,4.13
2023-03-20T06:49:01.615Z,3.63
2023-03-20T06:51:28.604Z,3.70
2023-03-20T06:53:55.722Z,3.75
2023-03-20T06:56:22.677Z,5.70
2023-03-20T06:58:49.693Z,5.07
2023-03-20T07:01:17.789Z,4.75
2023-03-20T07:03:46.310Z,4.13
2023-03-20T07:06:13.463Z,3.35
2023-03-20T07:08:41.694Z,3.65
2023-03-20T07:11:09.287Z,4.72
2023-03-20T07:13:36.179Z,3.67
2023-03-20T07:16:05.245Z,4.07
2023-03-20T07:18:32.482Z,4.10
2023-03-20T07:21:04.129Z,4.97
2023-03-20T07:23:31.700Z,3.33
2023-03-20T07:25:59.714Z,3.72
2023-03-20T07:28:27.076Z,3.20
2023-03-20T07:30:54.285Z,4.00
2023-03-20T07:33:21.225Z,3.63
2023-03-20T07:35:53.764Z,3.08
2023-03-20T07:38:26.395Z,3.78
2023-03-20T07:40:55.350Z,5.57
2023-03-20T07:43:23.222Z,3.47
2023-03-20T07:45:50.352Z,3.53
2023-03-20T07:48:19.507Z,3.47
2023-03-20T07:50:49.792Z,3.00
2023-03-20T07:53:19.640Z,4.43
2023-03-20T07:58:13.271Z,5.55
2023-03-20T08:00:40.635Z,3.90
2023-03-20T08:03:07.604Z,2.92
2023-03-20T08:05:35.347Z,3.85
2023-03-20T08:08:02.852Z,4.10
2023-03-20T08:10:29.806Z,3.70
2023-03-20T08:12:57.657Z,3.83
2023-03-20T08:15:27.586Z,3.80
2023-03-20T08:17:54.576Z,3.78
2023-03-20T08:20:21.805Z,6.60
2023-03-20T08:22:49.711Z,4.68
2023-03-20T08:25:17.216Z,3.20
2023-03-20T08:27:44.390Z,3.10
2023-03-20T08:30:13.979Z,3.10
2023-03-20T08:32:41.590Z,5.40
2023-03-20T08:35:22.020Z,3.17
2023-03-20T08:37:57.280Z,3.05
2023-03-20T08:40:24.343Z,3.58
2023-03-20T08:42:51.383Z,2.78
2023-03-20T08:45:18.502Z,4.30
2023-03-20T08:47:48.764Z,3.00
2023-03-20T08:50:17.097Z,3.55
2023-03-20T08:52:46.927Z,3.08
2023-03-20T08:57:42.336Z,3.05
2023-03-20T09:00:17.057Z,5.18
2023-03-20T09:02:44.981Z,3.67
2023-03-20T09:05:12.350Z,3.33
2023-03-20T09:07:42.357Z,3.63
2023-03-20T09:10:10.732Z,3.83
2023-03-20T09:12:38.384Z,5.07
2023-03-20T09:15:06.888Z,4.70
2023-03-20T09:17:33.796Z,2.60
2023-03-20T09:20:01.667Z,3.00
2023-03-20T09:22:28.729Z,3.47
2023-03-20T09:25:01.346Z,2.83
2023-03-20T09:27:28.542Z,3.92
2023-03-20T09:29:55.606Z,5.57
2023-03-20T09:32:22.624Z,4.57
2023-03-20T09:34:49.651Z,4.32
2023-03-20T09:37:18.762Z,3.70
2023-03-20T09:39:45.932Z,4.22
2023-03-20T09:43:00.825Z,4.93
2023-03-20T09:45:51.739Z,3.30
2023-03-20T09:48:26.245Z,3.55
2023-03-20T09:51:31.935Z,3.10
2023-03-20T09:54:12.067Z,2.92
2023-03-20T09:56:39.190Z,3.28
2023-03-20T09:59:07.732Z,3.15
2023-03-20T10:01:56.039Z,3.63
2023-03-20T10:04:27.625Z,3.30
2023-03-20T10:06:56.665Z,2.60
2023-03-20T10:09:27.556Z,3.13
2023-03-20T10:12:14.640Z,3.42
2023-03-20T10:15:16.630Z,2.67
2023-03-20T10:18:01.856Z,2.80
2023-03-20T10:20:35.439Z,3.13
2023-03-20T10:23:02.650Z,2.40
2023-03-20T10:25:42.382Z,3.08
2023-03-20T10:28:17.047Z,2.47
2023-03-20T10:31:30.310Z,2.80
2023-03-20T10:34:20.854Z,2.83
2023-03-20T10:36:59.588Z,4.10
2023-03-20T10:39:50.536Z,3.55
2023-03-20T10:42:24.556Z,2.88
2023-03-20T10:45:08.232Z,2.42
2023-03-20T10:47:40.879Z,3.40
2023-03-20T10:50:17.369Z,4.18
2023-03-20T10:52:48.317Z,2.95
2023-03-20T10:55:23.231Z,2.35
2023-03-20T10:58:18.108Z,3.13
2023-03-20T11:00:44.992Z,2.85
2023-03-20T11:03:25.587Z,3.72
2023-03-20T11:06:22.796Z,2.90
2023-03-20T11:08:52.212Z,3.72
2023-03-20T11:11:28.220Z,3.22
2023-03-20T11:13:57.012Z,3.58
2023-03-20T11:16:31.659Z,3.13
2023-03-20T11:19:07.102Z,3.20
2023-03-20T11:21:43.185Z,3.10
2023-03-20T11:24:45.876Z,2.80
2023-03-20T11:27:17.715Z,2.38
2023-03-20T11:29:49.042Z,2.55
2023-03-20T11:32:36.123Z,3.20
2023-03-20T11:35:27.156Z,2.97
2023-03-20T11:38:07.184Z,3.80
2023-03-20T11:40:35.154Z,3.30
2023-03-20T11:43:06.285Z,4.10
2023-03-20T11:45:39.752Z,3.33
2023-03-20T11:48:15.033Z,5.03
2023-03-20T11:50:46.037Z,3.38
2023-03-20T11:53:39.402Z,4.13
2023-03-20T11:56:11.478Z,3.38
2023-03-20T11:58:56.341Z,4.22
2023-03-20T12:01:23.683Z,4.22
2023-03-20T12:03:56.548Z,2.88
2023-03-20T12:06:27.173Z,4.07
2023-03-20T12:09:02.783Z,3.10
2023-03-20T12:12:00.075Z,3.60
2023-03-20T12:14:32.144Z,3.83
2023-03-20T12:17:46.171Z,4.25
2023-03-20T12:20:45.381Z,6.65
2023-03-20T12:23:27.540Z,4.18
2023-03-20T12:26:00.107Z,5.10
2023-03-20T12:28:33.312Z,4.65
2023-03-20T12:31:12.448Z,3.92
2023-03-20T12:33:44.964Z,4.63
2023-03-20T12:36:16.623Z,3.80
2023-03-20T12:38:44.821Z,5.13
2023-03-20T12:41:16.182Z,4.70
2023-03-20T12:43:43.011Z,3.38
2023-03-20T12:46:30.344Z,6.35
2023-03-20T12:49:35.162Z,3.58
2023-03-20T12:52:19.302Z,5.18
2023-03-20T12:55:26.074Z,4.45
2023-03-20T12:58:11.658Z,4.70
2023-03-20T13:00:51.077Z,4.32
2023-03-20T13:03:41.116Z,3.75
2023-03-20T13:06:13.535Z,3.88
2023-03-20T13:09:04.531Z,4.30
2023-03-20T13:11:42.632Z,4.78
2023-03-20T13:14:16.002Z,4.88
2023-03-20T13:16:57.738Z,5.25
2023-03-20T13:20:01.963Z,4.40
2023-03-20T13:22:41.368Z,4.60
2023-03-20T13:25:59.441Z,6.13
2023-03-20T13:28:45.879Z,6.43
2023-03-20T13:31:38.619Z,4.40
2023-03-20T13:34:25.994Z,5.30
2023-03-20T13:37:21.930Z,6.22
2023-03-20T13:40:14.859Z,5.55
2023-03-20T13:43:02.412Z,5.95
2023-03-20T13:45:41.403Z,5.07
2023-03-20T13:48:32.240Z,6.38
2023-03-20T13:51:54.964Z,5.13
2023-03-20T13:54:47.624Z,5.80
2023-03-20T13:57:33.946Z,6.38
2023-03-20T14:00:19.474Z,5.88
2023-03-20T14:03:07.527Z,5.60
2023-03-20T14:05:41.896Z,4.65
2023-03-20T14:08:23.975Z,4.60
2023-03-20T14:11:14.999Z,4.70
2023-03-20T14:14:14.416Z,4.55
2023-03-20T14:16:42.317Z,5.00
2023-03-20T14:19:21.114Z,6.28
2023-03-20T14:21:52.085Z,6.38
2023-03-20T14:24:22.538Z,4.68
2023-03-20T14:27:18.171Z,4.30
2023-03-20T14:29:45.173Z,5.60
2023-03-20T14:32:14.841Z,4.60
2023-03-20T14:34:46.570Z,6.10
2023-03-20T14:37:39.324Z,4.75
2023-03-20T14:40:20.254Z,4.95
2023-03-20T14:43:17.445Z,5.20
2023-03-20T14:46:15.522Z,4.35
2023-03-20T14:48:47.929Z,6.57
2023-03-20T14:51:26.888Z,5.22
2023-03-20T14:54:18.031Z,6.07
2023-03-20T14:56:45.288Z,5.55
2023-03-20T14:59:14.316Z,5.80
2023-03-20T15:01:53.519Z,4.68
2023-03-20T15:04:42.589Z,7.10
2023-03-20T15:07:24.735Z,6.30
2023-03-20T15:09:54.982Z,4.13
2023-03-20T15:12:27.141Z,5.22
2023-03-20T15:14:59.762Z,4.80
2023-03-20T15:17:39.549Z,5.25
2023-03-20T15:22:51.652Z,5.57
2023-03-20T15:25:21.367Z,5.20
2023-03-20T15:27:49.519Z,5.28
2023-03-20T15:30:20.288Z,5.45
2023-03-20T15:32:54.084Z,5.38
2023-03-20T15:35:26.077Z,6.85
2023-03-20T15:37:54.720Z,6.60
2023-03-20T15:40:26.973Z,5.00
2023-03-20T15:43:05.932Z,5.75
2023-03-20T15:45:38.172Z,5.57
2023-03-20T15:48:07.985Z,6.38
2023-03-20T15:50:43.421Z,5.57
2023-03-20T15:53:18.982Z,6.72
2023-03-20T15:56:16.842Z,7.07
2023-03-20T15:58:45.985Z,6.60
2023-03-20T16:01:18.668Z,5.32
2023-03-20T16:03:46.048Z,4.95
2023-03-20T16:06:17.915Z,9.05
2023-03-20T16:08:46.891Z,6.32
2023-03-20T16:11:17.569Z,4.70
2023-03-20T16:13:47.640Z,4.50
2023-03-20T16:16:24.760Z,4.47
2023-03-20T16:18:51.761Z,4.18
2023-03-20T16:21:28.065Z,3.72
2023-03-20T16:23:59.398Z,5.35
2023-03-20T16:26:27.785Z,5.15
2023-03-20T16:29:02.067Z,5.22
2023-03-20T16:31:34.039Z,5.55
2023-03-20T16:34:07.374Z,4.97
2023-03-20T16:36:37.795Z,5.30
2023-03-20T16:39:09.639Z,4.18
2023-03-20T16:41:40.620Z,4.57
2023-03-20T16:44:18.916Z,4.38
2023-03-20T16:47:03.919Z,4.50
2023-03-20T16:49:54.934Z,4.80
2023-03-20T16:52:27.826Z,5.05
2023-03-20T16:54:58.144Z,5.18
2023-03-20T16:57:28.794Z,6.47
2023-03-20T17:00:04.660Z,5.28
2023-03-20T17:02:37.078Z,5.53
2023-03-20T17:05:07.508Z,5.38
2023-03-20T17:07:36.001Z,5.07
2023-03-20T17:10:21.607Z,6.22
2023-03-20T17:12:50.424Z,5.40
2023-03-20T17:15:20.522Z,4.78
2023-03-20T17:17:47.605Z,4.78
2023-03-20T17:20:26.907Z,5.03
2023-03-20T17:22:54.251Z,5.55
2023-03-20T17:25:21.919Z,5.13
2023-03-20T17:27:49.123Z,5.15
2023-03-20T17:30:19.692Z,4.38
2023-03-20T17:32:47.293Z,5.68
2023-03-20T17:35:14.866Z,5.28
2023-03-20T17:37:42.219Z,4.95
2023-03-20T17:40:22.198Z,4.18
2023-03-20T17:42:50.476Z,5.70
2023-03-20T17:45:20.731Z,5.07
2023-03-20T17:47:48.587Z,5.95
2023-03-20T17:50:25.420Z,4.20
2023-03-20T17:52:52.389Z,4.80
2023-03-20T17:55:19.533Z,4.65
2023-03-20T17:57:46.825Z,5.70
2023-03-20T18:00:20.016Z,5.63
2023-03-20T18:02:47.507Z,5.72
2023-03-20T18:05:14.965Z,6.63
2023-03-20T18:07:42.204Z,5.18
2023-03-20T18:10:23.498Z,5.28
2023-03-20T18:12:50.416Z,6.05
2023-03-20T18:15:17.604Z,5.25
2023-03-20T18:17:45.846Z,5.03
2023-03-20T18:20:33.354Z,5.18
2023-03-20T18:23:00.431Z,4.68
2023-03-20T18:25:27.525Z,4.93
2023-03-20T18:27:56.053Z,4.35
2023-03-20T18:30:25.597Z,4.20
2023-03-20T18:32:52.758Z,3.85
2023-03-20T18:35:19.854Z,4.38
2023-03-20T18:37:46.786Z,5.15
2023-03-20T18:40:31.468Z,4.82
2023-03-20T18:42:58.620Z,4.82
2023-03-20T18:45:27.952Z,5.28
2023-03-20T18:47:57.130Z,4.97
2023-03-20T18:50:37.511Z,5.38
2023-03-20T18:53:05.795Z,6.18
2023-03-20T18:55:34.102Z,4.95
2023-03-20T18:58:03.841Z,5.10
2023-03-20T19:03:03.445Z,6.13
2023-03-20T19:05:31.263Z,6.82
2023-03-20T19:07:59.828Z,6.13
2023-03-20T19:10:33.104Z,5.55
2023-03-20T19:13:01.474Z,5.30
2023-03-20T19:15:31.112Z,5.32
2023-03-20T19:17:58.122Z,4.40
2023-03-20T19:20:43.430Z,5.13
2023-03-20T19:23:13.840Z,5.05
2023-03-20T19:25:43.682Z,4.47
2023-03-20T19:30:49.347Z,5.40
2023-03-20T19:33:16.543Z,4.88
2023-03-20T19:36:03.317Z,5.60
2023-03-20T19:38:31.913Z,4.60
2023-03-20T19:41:00.323Z,3.67
2023-03-20T19:43:28.970Z,5.18
2023-03-20T19:45:59.048Z,4.50
2023-03-20T19:48:50.513Z,5.15
2023-03-20T19:51:19.122Z,4.57
2023-03-20T19:53:47.349Z,4.73
2023-03-20T19:56:16.017Z,4.40
2023-03-20T19:58:43.360Z,4.35
2023-03-20T20:01:16.890Z,4.63
2023-03-20T20:03:45.231Z,4.90
2023-03-20T20:06:12.482Z,6.60
2023-03-20T20:08:47.806Z,5.40
2023-03-20T20:11:16.453Z,5.22
2023-03-20T20:14:04.269Z,4.63
2023-03-20T20:16:30.963Z,5.72
2023-03-20T20:18:57.865Z,5.25
2023-03-20T20:24:12.559Z,5.43
2023-03-20T20:26:47.842Z,5.13
2023-03-20T20:29:20.653Z,5.65
2023-03-20T20:31:47.613Z,6.38
2023-03-20T20:35:21.961Z,6.00
2023-03-20T20:37:47.453Z,5.22
2023-03-20T20:39:50.227Z,6.15
2023-03-20T20:42:17.378Z,5.93
2023-03-20T20:44:45.257Z,7.78
2023-03-20T20:47:13.382Z,6.57
2023-03-20T20:49:40.357Z,6.72
2023-03-20T20:52:08.257Z,5.78
2023-03-20T20:54:36.482Z,6.53
2023-03-20T20:57:03.760Z,6.18
2023-03-20T20:59:30.676Z,6.43
2023-03-20T21:01:57.682Z,5.55
2023-03-20T21:04:24.617Z,6.40
2023-03-20T21:07:09.437Z,6.82
2023-03-20T21:09:37.657Z,5.47
2023-03-20T21:12:05.475Z,6.10
2023-03-20T21:14:32.709Z,5.03
2023-03-20T21:17:01.329Z,5.10
2023-03-20T21:19:30.596Z,4.47
2023-03-20T21:21:57.760Z,5.45
2023-03-20T21:24:34.324Z,5.03
2023-03-20T21:27:08.022Z,4.47
2023-03-20T21:29:35.005Z,6.25
2023-03-20T21:32:03.784Z,4.22
2023-03-20T21:34:31.323Z,5.28
2023-03-20T21:37:00.189Z,6.05
2023-03-20T21:39:30.367Z,5.60
2023-03-20T21:41:58.305Z,6.05
2023-03-20T21:45:08.952Z,5.68
2023-03-20T21:48:13.254Z,5.43
2023-03-20T22:04:54.766Z,6.50
2023-03-20T22:10:18.529Z,7.13
2023-03-20T22:13:07.996Z,6.28
2023-03-20T22:15:46.301Z,6.18
2023-03-20T22:18:35.569Z,6.57
2023-03-20T22:24:14.656Z,6.70
2023-03-20T22:32:40.257Z,5.35
2023-03-20T22:38:02.473Z,5.38
2023-03-20T22:41:49.315Z,5.43
2023-03-20T22:43:55.200Z,6.40
2023-03-20T22:46:07.739Z,5.95
2023-03-20T22:48:37.478Z,5.90
2023-03-20T22:51:06.190Z,6.68
2023-03-20T22:53:33.798Z,5.72
2023-03-20T22:56:01.007Z,5.13
2023-03-20T22:58:28.005Z,6.55
2023-03-20T23:00:55.301Z,5.22
2023-03-20T23:03:38.147Z,5.50
2023-03-20T23:06:10.028Z,5.05
2023-03-20T23:08:47.988Z,5.25
2023-03-20T23:11:20.162Z,5.40
2023-03-20T23:13:47.191Z,4.63
2023-03-20T23:16:14.243Z,5.07
2023-03-20T23:18:41.786Z,4.50
2023-03-20T23:21:09.242Z,4.00
2023-03-20T23:23:36.068Z,4.47
2023-03-20T23:26:07.616Z,4.93
2023-03-20T23:28:36.338Z,4.65
2023-03-20T23:31:20.806Z,4.10
2023-03-20T23:33:56.703Z,4.80
2023-03-20T23:36:42.695Z,5.03
2023-03-20T23:39:11.847Z,4.55
2023-03-20T23:42:09.946Z,4.40
2023-03-20T23:44:26.383Z,5.25
2023-03-20T23:46:55.446Z,4.63
2023-03-20T23:49:22.980Z,4.03
2023-03-20T23:51:49.814Z,4.03
2023-03-20T23:54:16.752Z,4.75
2023-03-20T23:56:43.904Z,4.40
2023-03-20T23:59:21.101Z,4.47
